Time;durP1;ratioP1;P1;durP2;ratioP2;P2;SDS_P1;SDS_P2;PMS_P1;PMS_P2;Temp;Humidity;BMP_temperature;BMP_pressure;BME280_temperature;BME280_humidity;BME280_pressure;Samples;Min_cycle;Max_cycle;Signal;HPM_P1;HPM_P2
2021/05/05 00:01:57;;;;;;;4.90;2.92;;;;;;;12.72;60.71;100560.76;1756460;82;21119;-50
2021/05/05 00:04:25;;;;;;;4.37;2.87;;;;;;;12.74;60.75;100557.64;1756445;82;21163;-63
2021/05/05 00:06:58;;;;;;;4.17;2.90;;;;;;;12.76;60.97;100558.95;1755817;82;21168;-66
2021/05/05 00:09:27;;;;;;;4.25;2.50;;;;;;;12.77;60.98;100554.95;1756129;82;21171;-66
2021/05/05 00:11:55;;;;;;;5.72;3.20;;;;;;;12.81;60.94;100551.78;1756305;80;21302;-50
2021/05/05 00:14:23;;;;;;;4.78;2.98;;;;;;;12.84;60.86;100549.55;1756378;82;21626;-66
2021/05/05 00:16:51;;;;;;;5.10;3.40;;;;;;;12.84;60.90;100549.55;1745280;80;21126;-66
2021/05/05 00:19:18;;;;;;;6.33;3.05;;;;;;;12.87;60.99;100552.14;1726443;83;21150;-50
2021/05/05 00:21:46;;;;;;;4.85;2.98;;;;;;;12.88;60.98;100546.81;1726934;82;21558;-50
2021/05/05 00:24:14;;;;;;;5.85;3.00;;;;;;;12.90;61.03;100550.77;1726418;83;21202;-51
2021/05/05 00:26:42;;;;;;;4.90;3.27;;;;;;;12.91;61.08;100540.62;1755945;80;21196;-50
2021/05/05 00:29:10;;;;;;;5.83;3.22;;;;;;;12.92;61.20;100539.72;1756318;82;21646;-66
2021/05/05 00:31:38;;;;;;;5.90;2.90;;;;;;;12.94;61.25;100541.41;1755544;80;21641;-50
2021/05/05 00:34:07;;;;;;;5.95;3.15;;;;;;;12.99;61.24;100545.74;1756083;82;21163;-51
2021/05/05 00:36:35;;;;;;;5.12;2.80;;;;;;;13.01;61.15;100541.30;1756094;80;21134;-63
2021/05/05 00:39:04;;;;;;;4.42;2.67;;;;;;;13.02;61.14;100541.72;1753116;82;21175;-66
2021/05/05 00:41:33;;;;;;;6.10;3.10;;;;;;;13.01;61.06;100533.38;1726146;82;21329;-65
2021/05/05 00:44:01;;;;;;;4.17;2.95;;;;;;;13.00;60.97;100535.59;1739866;81;21123;-66
2021/05/05 00:46:28;;;;;;;5.15;3.20;;;;;;;12.99;60.95;100537.38;1761741;81;21570;-50
2021/05/05 00:48:57;;;;;;;5.85;3.72;;;;;;;12.98;60.96;100534.31;1760789;81;21150;-50
2021/05/05 00:51:25;;;;;;;4.42;2.85;;;;;;;12.97;60.80;100529.94;1761555;80;21639;-50
2021/05/05 00:53:53;;;;;;;5.72;3.55;;;;;;;12.96;60.68;100528.63;1761936;81;21178;-50
2021/05/05 00:56:21;;;;;;;3.83;2.77;;;;;;;12.94;60.58;100526.88;1761453;80;21199;-65
2021/05/05 00:58:50;;;;;;;4.50;3.20;;;;;;;12.89;60.41;100526.56;1740239;81;21308;-65
2021/05/05 01:01:18;;;;;;;7.35;3.00;;;;;;;12.83;60.32;100530.17;1761439;81;21123;-65
2021/05/05 01:03:46;;;;;;;4.72;2.92;;;;;;;12.78;60.34;100526.31;1761551;81;21166;-50
2021/05/05 01:06:14;;;;;;;5.53;3.55;;;;;;;12.80;60.22;100526.30;1760941;81;21610;-50
2021/05/05 01:08:43;;;;;;;7.05;3.70;;;;;;;12.78;60.11;100526.78;1761785;81;21583;-65
2021/05/05 01:11:11;;;;;;;5.28;3.33;;;;;;;12.74;59.98;100523.78;1761294;81;21196;-65
2021/05/05 01:13:43;;;;;;;4.12;2.72;;;;;;;12.69;60.00;100515.92;1761380;81;21166;-65
2021/05/05 01:16:15;;;;;;;4.75;3.33;;;;;;;12.67;59.95;100520.83;1760709;80;21273;-50
2021/05/05 01:18:42;;;;;;;4.90;3.10;;;;;;;12.65;59.85;100516.88;1761436;81;21174;-65
2021/05/05 01:21:11;;;;;;;5.78;3.10;;;;;;;12.60;59.64;100510.38;1761430;81;21166;-50
2021/05/05 01:23:39;;;;;;;5.90;3.02;;;;;;;12.55;59.49;100516.19;1761398;81;21155;-50
2021/05/05 01:26:07;;;;;;;5.08;2.95;;;;;;;12.49;59.44;100514.97;1761141;80;21151;-49
2021/05/05 01:28:41;;;;;;;4.40;3.47;;;;;;;12.48;59.48;100514.55;1761403;81;21240;-65
2021/05/05 01:31:13;;;;;;;4.47;2.98;;;;;;;12.47;59.39;100510.17;1761659;80;21177;-65
2021/05/05 01:33:41;;;;;;;4.78;2.90;;;;;;;12.42;59.42;100511.58;1761012;81;21163;-50
2021/05/05 01:36:11;;;;;;;7.00;3.27;;;;;;;12.38;59.33;100517.81;1761404;80;21154;-65
2021/05/05 01:38:40;;;;;;;5.60;3.02;;;;;;;12.31;58.97;100517.06;1761369;81;21170;-50
2021/05/05 01:41:07;;;;;;;5.67;3.17;;;;;;;12.21;58.95;100516.78;1761617;81;21574;-65
2021/05/05 01:43:35;;;;;;;4.58;3.27;;;;;;;12.13;59.07;100511.65;1759181;81;21146;-65
2021/05/05 01:46:04;;;;;;;5.25;3.45;;;;;;;12.09;59.21;100520.50;1748173;81;21178;-49
2021/05/05 01:48:31;;;;;;;6.92;4.37;;;;;;;12.05;59.26;100516.17;1748069;82;21141;-65
2021/05/05 01:51:00;;;;;;;5.15;3.00;;;;;;;12.01;59.25;100518.43;1748074;82;21175;-65
2021/05/05 01:53:30;;;;;;;5.47;3.30;;;;;;;11.98;59.27;100513.17;1747627;82;21140;-50
2021/05/05 01:55:59;;;;;;;5.33;3.50;;;;;;;11.96;59.27;100516.28;1748039;81;21115;-65
2021/05/05 01:58:28;;;;;;;4.55;3.27;;;;;;;11.93;59.35;100510.59;1737568;82;21142;-50
2021/05/05 02:00:58;;;;;;;4.70;2.92;;;;;;;11.94;59.38;100511.47;1747857;82;21143;-65
2021/05/05 02:03:28;;;;;;;5.85;3.17;;;;;;;11.93;59.53;100516.33;1748114;82;21148;-65
2021/05/05 02:06:09;;;;;;;4.25;2.90;;;;;;;11.94;59.58;100520.24;1829988;77;22193;-48
2021/05/05 02:08:46;;;;;;;5.22;3.00;;;;;;;11.89;59.56;100521.64;1787514;80;21146;-65
2021/05/05 02:11:15;;;;;;;4.95;3.20;;;;;;;11.87;59.54;100521.27;1776737;80;21193;-50
2021/05/05 02:13:44;;;;;;;4.58;3.00;;;;;;;11.85;59.57;100524.37;1761767;81;21162;-50
2021/05/05 02:16:13;;;;;;;4.87;2.65;;;;;;;11.84;59.48;100517.34;1784966;80;21173;-50
2021/05/05 02:18:42;;;;;;;4.53;3.08;;;;;;;11.82;59.38;100518.67;1791981;80;21178;-52
2021/05/05 02:21:10;;;;;;;4.00;2.90;;;;;;;11.81;59.25;100525.30;1783632;80;21196;-65
2021/05/05 02:23:39;;;;;;;5.72;2.90;;;;;;;11.76;59.16;100522.72;1782794;80;21143;-65
2021/05/05 02:26:07;;;;;;;5.55;3.00;;;;;;;11.75;59.25;100520.97;1786205;80;21606;-50
2021/05/05 02:28:34;;;;;;;4.85;2.95;;;;;;;11.74;59.26;100513.95;1788680;80;21136;-50
2021/05/05 02:31:12;;;;;;;4.53;2.67;;;;;;;11.79;59.38;100513.91;1830164;77;22189;-48
2021/05/05 02:33:40;;;;;;;4.40;3.30;;;;;;;11.79;59.43;100514.77;1791811;80;21146;-48
2021/05/05 02:36:08;;;;;;;5.90;2.83;;;;;;;11.81;59.46;100507.70;1761919;81;21531;-48
2021/05/05 02:38:38;;;;;;;4.87;3.10;;;;;;;11.82;59.43;100510.77;1776249;80;21134;-50
2021/05/05 02:41:07;;;;;;;4.97;2.80;;;;;;;11.85;59.46;100512.50;1722787;83;21175;-50
2021/05/05 02:43:35;;;;;;;7.03;3.12;;;;;;;11.82;59.49;100509.91;1731902;83;21183;-65
2021/05/05 02:46:04;;;;;;;4.92;2.95;;;;;;;11.79;59.51;100512.59;1727458;83;21150;-65
2021/05/05 02:48:33;;;;;;;4.35;2.67;;;;;;;11.77;59.60;100515.70;1703560;82;21135;-49
2021/05/05 02:51:01;;;;;;;3.70;2.50;;;;;;;11.78;59.62;100521.39;1722905;83;21336;-49
2021/05/05 02:53:31;;;;;;;6.75;2.95;;;;;;;11.79;59.63;100516.55;1722291;82;21136;-65
2021/05/05 02:55:59;;;;;;;6.28;3.22;;;;;;;11.81;59.59;100515.61;1721561;82;21128;-50
2021/05/05 02:58:28;;;;;;;6.85;2.98;;;;;;;11.80;59.58;100517.83;1722836;83;21170;-64
2021/05/05 03:00:55;;;;;;;6.28;2.90;;;;;;;11.76;59.64;100520.08;1722922;83;21546;-50
2021/05/05 03:03:23;;;;;;;4.00;2.70;;;;;;;11.75;59.67;100519.23;1722640;82;21584;-65
2021/05/05 03:05:51;;;;;;;5.37;3.40;;;;;;;11.76;59.68;100522.72;1728085;82;21586;-65
2021/05/05 03:08:18;;;;;;;9.58;3.62;;;;;;;11.77;59.74;100523.61;1723055;83;21207;-64
2021/05/05 03:10:47;;;;;;;4.85;3.10;;;;;;;11.79;59.76;100526.62;1732018;83;21163;-50
2021/05/05 03:13:15;;;;;;;7.12;3.33;;;;;;;11.82;59.78;100525.27;1727588;83;21154;-50
2021/05/05 03:15:42;;;;;;;7.47;3.22;;;;;;;11.85;59.73;100528.33;1706007;82;21559;-64
2021/05/05 03:18:10;;;;;;;5.87;3.10;;;;;;;11.85;59.76;100531.81;1722855;83;21174;-50
2021/05/05 03:20:38;;;;;;;6.10;3.47;;;;;;;11.86;59.86;100524.80;1722707;83;21123;-51
2021/05/05 03:23:06;;;;;;;16.77;4.37;;;;;;;11.88;60.29;100522.54;1728398;82;21160;-51
2021/05/05 03:25:34;;;;;;;6.10;3.37;;;;;;;11.95;60.65;100520.66;1737251;82;21567;-55
2021/05/05 03:28:02;;;;;;;5.20;4.03;;;;;;;12.06;61.08;100519.23;1737378;82;21177;-64
2021/05/05 03:30:31;;;;;;;8.25;3.87;;;;;;;12.19;61.32;100520.75;1727655;82;21164;-51
2021/05/05 03:32:59;;;;;;;7.33;4.60;;;;;;;12.34;61.87;100518.76;1720288;83;21614;-52
2021/05/05 03:35:27;;;;;;;6.90;4.72;;;;;;;12.47;61.90;100517.66;1704191;84;21185;-64
2021/05/05 03:37:55;;;;;;;9.98;4.47;;;;;;;12.59;62.40;100509.95;1772889;81;21144;-52
2021/05/05 03:40:23;;;;;;;9.30;4.45;;;;;;;12.73;62.76;100508.36;1772843;81;21136;-52
2021/05/05 03:42:51;;;;;;;6.65;4.50;;;;;;;11.98;65.72;100515.34;1771046;81;21582;-53
2021/05/05 03:45:19;;;;;;;6.22;4.65;;;;;;;12.02;66.40;100515.75;1772596;81;21156;-65
2021/05/05 03:47:46;;;;;;;8.50;5.15;;;;;;;12.14;66.90;100515.99;1710406;84;21163;-53
2021/05/05 03:50:15;;;;;;;6.58;4.30;;;;;;;13.04;64.94;100506.89;1778251;81;21135;-65
2021/05/05 03:52:42;;;;;;;6.55;5.03;;;;;;;13.27;64.92;100514.34;1769066;81;21559;-52
2021/05/05 03:55:12;;;;;;;7.72;5.12;;;;;;;13.45;65.37;100501.20;1779253;80;21151;-52
2021/05/05 03:57:39;;;;;;;8.28;4.85;;;;;;;13.63;65.04;100505.20;1778890;81;21123;-65
2021/05/05 04:00:09;;;;;;;10.15;5.55;;;;;;;13.79;65.33;100509.67;1775102;80;21567;-51
2021/05/05 04:02:39;;;;;;;10.95;6.45;;;;;;;13.91;65.82;100502.36;1778876;81;21147;-51
2021/05/05 04:05:09;;;;;;;7.17;5.08;;;;;;;14.07;65.58;100498.44;1779207;80;21554;-52
2021/05/05 04:07:38;;;;;;;8.23;5.15;;;;;;;14.24;65.30;100499.34;1779182;80;21107;-52
2021/05/05 04:10:07;;;;;;;9.65;5.50;;;;;;;14.38;65.40;100496.33;1778265;81;21131;-65
2021/05/05 04:12:36;;;;;;;8.10;5.05;;;;;;;14.55;65.06;100491.05;1773895;81;21139;-64
2021/05/05 04:15:21;;;;;;;10.18;5.58;;;;;;;14.67;64.91;100488.03;1779274;81;21291;-52
2021/05/05 04:18:08;;;;;;;12.43;5.58;;;;;;;14.82;64.68;100485.91;1778513;81;21123;-51
2021/05/05 04:20:55;;;;;;;7.22;5.03;;;;;;;14.93;64.91;100486.92;1778610;81;21325;-64
2021/05/05 04:23:41;;;;;;;7.17;5.25;;;;;;;15.07;64.68;100483.42;1779298;81;21133;-53
2021/05/05 04:26:19;;;;;;;7.30;4.50;;;;;;;15.20;64.50;100473.32;1779246;81;21168;-54
2021/05/05 04:28:47;;;;;;;9.53;5.67;;;;;;;15.29;64.26;100475.70;1770068;81;21140;-50
2021/05/05 04:31:15;;;;;;;16.12;5.55;;;;;;;15.43;64.03;100477.07;1778201;80;21584;-50
2021/05/05 04:33:45;;;;;;;9.50;5.65;;;;;;;15.52;63.69;100476.76;1779005;81;21626;-51
2021/05/05 04:36:13;;;;;;;8.85;5.50;;;;;;;15.59;63.58;100470.34;1777242;81;21156;-53
2021/05/05 04:38:43;;;;;;;7.95;4.92;;;;;;;15.74;63.40;100468.98;1772133;81;21524;-65
2021/05/05 04:41:11;;;;;;;7.47;5.13;;;;;;;15.81;62.90;100471.00;1779079;80;21115;-52
2021/05/05 04:43:39;;;;;;;8.40;4.72;;;;;;;15.93;62.83;100472.41;1778852;81;21163;-53
2021/05/05 04:46:06;;;;;;;6.75;4.28;;;;;;;15.98;62.47;100465.60;1775570;81;21595;-52
2021/05/05 04:48:34;;;;;;;7.72;4.17;;;;;;;16.05;62.38;100464.05;1704851;84;21539;-52
2021/05/05 04:51:04;;;;;;;6.70;4.47;;;;;;;16.15;62.12;100473.00;1779261;80;21092;-65
2021/05/05 04:53:32;;;;;;;8.50;4.83;;;;;;;16.26;61.77;100460.22;1779093;80;21155;-52
2021/05/05 04:56:00;;;;;;;10.63;4.40;;;;;;;16.40;61.62;100466.85;1770768;81;21575;-65
2021/05/05 04:58:27;;;;;;;17.05;4.53;;;;;;;16.45;61.13;100468.41;1777023;81;21582;-66
2021/05/05 05:00:55;;;;;;;7.20;3.47;;;;;;;16.56;60.99;100471.16;1778995;80;21608;-66
2021/05/05 05:03:23;;;;;;;9.20;3.62;;;;;;;16.73;60.80;100474.09;1778229;81;21135;-65
2021/05/05 05:05:50;;;;;;;6.17;3.20;;;;;;;16.85;60.27;100468.77;1769005;81;21135;-66
2021/05/05 05:08:18;;;;;;;7.40;3.90;;;;;;;16.95;59.83;100467.95;1773754;81;21571;-51
2021/05/05 05:10:46;;;;;;;6.17;3.80;;;;;;;17.10;59.66;100467.87;1778917;80;21606;-52
2021/05/05 05:13:14;;;;;;;7.85;3.37;;;;;;;17.18;59.07;100471.11;1774532;81;21159;-66
2021/05/05 05:15:42;;;;;;;12.60;3.67;;;;;;;17.31;59.14;100465.32;1766398;81;21154;-66
2021/05/05 05:18:10;;;;;;;8.83;3.58;;;;;;;17.47;57.75;100474.89;1748090;82;21575;-66
2021/05/05 05:20:38;;;;;;;6.97;2.80;;;;;;;17.54;56.75;100470.58;1748094;82;21732;-65
2021/05/05 05:23:05;;;;;;;4.37;2.62;;;;;;;17.60;55.60;100472.16;1765419;81;21134;-52
2021/05/05 05:25:34;;;;;;;12.00;5.62;;;;;;;17.74;55.58;100479.57;1704482;84;21111;-66
2021/05/05 05:28:02;;;;;;;7.05;3.60;;;;;;;17.85;55.30;100468.48;1763430;81;21127;-51
2021/05/05 05:30:30;;;;;;;7.15;2.60;;;;;;;17.95;54.68;100471.16;1732940;82;21139;-65
2021/05/05 05:32:57;;;;;;;6.00;2.58;;;;;;;18.05;53.76;100474.34;1769234;81;21142;-66
2021/05/05 05:35:26;;;;;;;5.25;2.80;;;;;;;18.11;52.57;100470.53;1727624;82;21159;-52
2021/05/05 05:37:54;;;;;;;8.25;2.50;;;;;;;18.21;52.89;100467.88;1764047;81;21585;-65
2021/05/05 05:40:22;;;;;;;6.05;2.25;;;;;;;18.30;51.78;100463.98;1728852;82;21570;-67
2021/05/05 05:42:49;;;;;;;6.25;2.22;;;;;;;18.40;51.80;100456.44;1760970;81;21524;-66
2021/05/05 05:45:18;;;;;;;3.52;1.70;;;;;;;18.47;50.93;100457.03;1727506;82;21331;-66
2021/05/05 05:47:46;;;;;;;5.12;2.52;;;;;;;18.61;50.57;100452.41;1769892;81;21143;-54
2021/05/05 05:50:15;;;;;;;6.58;2.25;;;;;;;18.64;49.68;100458.94;1764853;81;21156;-66
2021/05/05 05:52:43;;;;;;;5.55;2.27;;;;;;;18.69;49.20;100455.61;1766299;81;21138;-66
2021/05/05 05:55:12;;;;;;;4.72;2.17;;;;;;;18.82;49.17;100462.12;1731296;82;21705;-51
2021/05/05 05:57:40;;;;;;;6.08;2.02;;;;;;;18.91;48.32;100455.98;1761985;81;21139;-52
2021/05/05 06:00:11;;;;;;;5.42;1.90;;;;;;;18.98;48.09;100453.47;1767429;81;21604;-66
2021/05/05 06:02:42;;;;;;;6.60;1.65;;;;;;;19.06;46.84;100463.28;1766328;81;21163;-54
2021/05/05 06:05:11;;;;;;;3.90;1.72;;;;;;;19.12;46.88;100457.66;1771323;81;21578;-53
2021/05/05 06:07:40;;;;;;;4.50;1.72;;;;;;;19.34;46.72;100453.11;1772420;81;21154;-54
2021/05/05 06:10:09;;;;;;;4.35;1.72;;;;;;;19.42;45.25;100448.28;1735536;82;21606;-66
2021/05/05 06:12:38;;;;;;;6.28;1.55;;;;;;;19.50;44.63;100475.92;1778782;80;21151;-66
2021/05/05 06:15:09;;;;;;;7.92;1.50;;;;;;;19.49;43.33;100448.84;1773416;81;21192;-65
2021/05/05 06:17:37;;;;;;;9.20;1.50;;;;;;;19.64;43.13;100441.42;1772659;81;21112;-53
2021/05/05 06:20:06;;;;;;;2.60;1.20;;;;;;;19.62;40.72;100452.64;1763789;81;21570;-66
2021/05/05 06:22:34;;;;;;;7.72;2.37;;;;;;;19.69;41.61;100454.08;1750463;81;21156;-53
2021/05/05 06:25:03;;;;;;;2.65;1.12;;;;;;;19.61;40.45;100461.14;1778851;80;21877;-53
2021/05/05 06:27:31;;;;;;;4.42;1.37;;;;;;;19.45;40.16;100456.98;1768626;80;21579;-65
2021/05/05 06:29:59;;;;;;;4.42;1.30;;;;;;;19.38;40.02;100456.03;1752801;81;21123;-66
2021/05/05 06:32:28;;;;;;;9.85;1.62;;;;;;;19.34;40.88;100450.45;1755999;82;21182;-53
2021/05/05 06:34:55;;;;;;;4.25;1.32;;;;;;;19.28;40.80;100446.28;1773018;80;21162;-66
2021/05/05 06:37:23;;;;;;;1.98;1.02;;;;;;;19.39;41.56;100441.75;1782804;80;21138;-66
2021/05/05 06:39:52;;;;;;;3.65;1.60;;;;;;;19.57;41.27;100443.99;1786452;80;21149;-59
2021/05/05 06:42:21;;;;;;;2.80;1.35;;;;;;;19.67;39.87;100465.30;1786992;80;21577;-53
2021/05/05 06:44:48;;;;;;;5.83;1.20;;;;;;;19.83;39.99;100449.87;1787468;80;21527;-53
2021/05/05 06:47:16;;;;;;;3.47;1.40;;;;;;;19.97;39.77;100455.88;1782546;80;21541;-66
2021/05/05 06:49:45;;;;;;;9.55;1.40;;;;;;;20.21;39.02;100453.77;1783489;80;21300;-53
2021/05/05 06:52:13;;;;;;;1.87;1.10;;;;;;;20.32;38.19;100450.03;1786884;80;21585;-53
2021/05/05 06:54:41;;;;;;;3.37;1.00;;;;;;;20.48;38.17;100454.59;1787202;80;21594;-52
2021/05/05 06:57:09;;;;;;;4.22;1.37;;;;;;;20.59;38.54;100445.99;1787480;80;21182;-65
2021/05/05 06:59:37;;;;;;;3.30;1.60;;;;;;;20.72;39.17;100446.23;1786895;80;21597;-65
2021/05/05 07:02:05;;;;;;;4.22;2.77;;;;;;;20.87;40.59;100445.89;1781427;80;21162;-65
2021/05/05 07:04:33;;;;;;;5.10;2.40;;;;;;;21.07;40.06;100446.98;1781144;80;21157;-53
2021/05/05 07:07:01;;;;;;;7.45;3.17;;;;;;;21.15;40.46;100449.72;1765192;80;21571;-53
2021/05/05 07:09:31;;;;;;;8.30;2.58;;;;;;;21.25;41.26;100443.75;1760154;80;21142;-58
2021/05/05 07:11:58;;;;;;;3.83;1.80;;;;;;;21.35;40.38;100441.45;1787182;80;21138;-65
2021/05/05 07:14:27;;;;;;;4.90;1.82;;;;;;;21.45;40.45;100451.61;1787035;80;21610;-65
2021/05/05 07:16:56;;;;;;;9.60;1.82;;;;;;;21.47;40.02;100458.63;1782552;80;21264;-65
2021/05/05 07:19:25;;;;;;;3.58;1.65;;;;;;;21.60;40.12;100460.61;1767748;80;21119;-65
2021/05/05 07:21:52;;;;;;;6.10;1.60;;;;;;;21.60;40.12;100452.58;1714928;83;21562;-66
2021/05/05 07:24:20;;;;;;;5.97;2.12;;;;;;;21.61;40.21;100452.47;1719951;83;21539;-65
2021/05/05 07:26:48;;;;;;;4.30;1.95;;;;;;;21.64;39.97;100458.14;1775448;80;21156;-53
2021/05/05 07:29:18;;;;;;;5.08;2.00;;;;;;;21.64;39.74;100451.45;1776969;80;21144;-66
2021/05/05 07:31:46;;;;;;;3.62;1.10;;;;;;;21.68;40.08;100455.22;1781979;80;21184;-65
2021/05/05 07:34:15;;;;;;;6.10;2.05;;;;;;;21.80;39.47;100456.31;1779178;81;21577;-53
2021/05/05 07:36:46;;;;;;;6.33;1.80;;;;;;;21.93;39.17;100446.23;1758420;81;21664;-53
2021/05/05 07:39:29;;;;;;;10.25;1.67;;;;;;;22.01;38.61;100456.02;1767557;81;21527;-66
2021/05/05 07:47:25;;;;;;;19.52;3.50;;;;;;;22.30;37.83;100443.17;1774401;80;21562;-53
2021/05/05 07:49:54;;;;;;;5.28;1.70;;;;;;;22.39;37.57;100454.19;1707226;83;21294;-66
2021/05/05 07:52:22;;;;;;;4.65;1.92;;;;;;;22.34;36.81;100444.69;1707114;84;21179;-53
2021/05/05 07:54:49;;;;;;;13.18;3.25;;;;;;;22.41;36.25;100442.90;1773882;81;21277;-65
2021/05/05 07:57:19;;;;;;;5.60;2.47;;;;;;;22.42;34.78;100443.74;1779248;81;21406;-66
2021/05/05 07:59:46;;;;;;;7.15;2.08;;;;;;;22.45;35.83;100454.31;1778603;80;21301;-65
2021/05/05 08:02:13;;;;;;;14.68;2.42;;;;;;;22.37;35.12;100450.73;1768348;81;21183;-50
2021/05/05 08:04:49;;;;;;;5.60;2.12;;;;;;;22.34;34.82;100442.00;1734147;82;21286;-62
2021/05/05 08:07:12;;;;;;;7.65;2.25;;;;;;;22.28;35.55;100442.79;1764662;80;21622;-51
2021/05/05 08:09:41;;;;;;;4.22;1.55;;;;;;;22.39;35.70;100438.10;1727585;82;21167;-63
2021/05/05 08:12:11;;;;;;;8.95;2.55;;;;;;;22.58;35.60;100436.98;1764049;81;21605;-66
2021/05/05 08:14:41;;;;;;;5.42;1.37;;;;;;;22.83;34.11;100430.95;1763710;81;21607;-66
2021/05/05 08:17:10;;;;;;;7.30;1.57;;;;;;;22.81;33.32;100423.97;1774441;81;21599;-54
2021/05/05 08:19:40;;;;;;;5.92;1.85;;;;;;;22.82;33.74;100426.54;1727442;82;21132;-53
2021/05/05 08:22:07;;;;;;;4.05;1.32;;;;;;;22.83;33.40;100420.71;1765416;81;21556;-54
2021/05/05 08:24:37;;;;;;;13.08;2.05;;;;;;;22.96;33.13;100418.10;1772590;81;21119;-53
2021/05/05 08:27:06;;;;;;;19.50;2.12;;;;;;;23.05;32.66;100414.84;1770404;81;21107;-53
2021/05/05 08:29:36;;;;;;;14.58;2.00;;;;;;;22.98;31.50;100413.01;1765026;81;21127;-66
2021/05/05 08:32:04;;;;;;;5.58;1.60;;;;;;;23.10;32.21;100414.53;1731592;82;21639;-54
2021/05/05 08:34:32;;;;;;;7.33;1.77;;;;;;;23.14;32.19;100418.28;1737518;82;21598;-65
2021/05/05 08:37:00;;;;;;;5.58;1.20;;;;;;;23.18;32.03;100419.77;1737556;82;21195;-65
2021/05/05 08:39:34;;;;;;;2.65;1.10;;;;;;;23.10;31.57;100419.44;1744623;82;21570;-54
2021/05/05 08:42:04;;;;;;;5.33;1.30;;;;;;;23.11;31.55;100426.52;1742271;82;21159;-65
2021/05/05 08:44:32;;;;;;;5.05;1.20;;;;;;;23.18;31.53;100423.80;1736524;82;21142;-53
2021/05/05 08:47:00;;;;;;;4.47;1.20;;;;;;;23.15;31.33;100417.31;1743372;82;21285;-65
2021/05/05 08:49:29;;;;;;;4.22;1.10;;;;;;;23.36;32.32;100418.73;1745434;81;21575;-66
2021/05/05 08:51:57;;;;;;;4.62;1.22;;;;;;;23.25;31.01;100419.41;1745023;81;21228;-53
2021/05/05 08:54:25;;;;;;;4.28;1.20;;;;;;;23.07;31.27;100410.23;1715688;82;21554;-65
2021/05/05 08:56:52;;;;;;;7.95;1.37;;;;;;;23.06;31.79;100409.85;1744311;81;21580;-66
2021/05/05 08:59:21;;;;;;;3.55;1.10;;;;;;;22.99;31.80;100410.70;1737836;82;21131;-65
2021/05/05 09:01:48;;;;;;;6.55;1.17;;;;;;;22.94;32.01;100408.82;1715770;84;21563;-54
2021/05/05 09:04:16;;;;;;;7.78;1.37;;;;;;;22.90;31.97;100420.71;1728788;82;21166;-66
2021/05/05 09:06:56;;;;;;;3.43;1.43;;;;;;;22.95;32.29;100412.36;1744389;82;21195;-65
2021/05/05 09:09:40;;;;;;;13.22;3.02;;;;;;;23.03;31.72;100412.23;1744137;82;21571;-54
2021/05/05 09:12:21;;;;;;;5.80;1.90;;;;;;;23.11;30.92;100429.21;1745079;82;21203;-66
2021/05/05 09:14:54;;;;;;;14.83;3.10;;;;;;;23.14;29.96;100420.08;1745198;82;21594;-66
2021/05/05 09:17:30;;;;;;;9.43;1.52;;;;;;;23.09;30.63;100423.08;1722804;82;21183;-53
2021/05/05 09:20:09;;;;;;;12.18;2.33;;;;;;;22.93;30.00;100413.81;1733973;82;21121;-66
2021/05/05 09:22:43;;;;;;;3.92;1.05;;;;;;;22.94;30.20;100422.70;1738466;82;21655;-54
2021/05/05 09:25:15;;;;;;;3.17;1.20;;;;;;;22.26;31.68;100421.03;1737985;82;21672;-53
2021/05/05 09:27:43;;;;;;;5.80;1.22;;;;;;;22.91;31.52;100412.16;1738021;82;21671;-65
2021/05/05 09:30:22;;;;;;;20.65;2.45;;;;;;;22.97;30.60;100417.14;1744306;82;21206;-53
2021/05/05 09:32:53;;;;;;;4.67;1.40;;;;;;;22.85;30.40;100411.59;1746839;80;21184;-52
2021/05/05 09:35:32;;;;;;;1.98;1.12;;;;;;;22.68;30.55;100409.98;1741268;82;21584;-66
2021/05/05 09:38:07;;;;;;;1.95;1.00;;;;;;;22.32;29.92;100421.13;1695511;84;21168;-52
2021/05/05 09:40:36;;;;;;;3.00;0.95;;;;;;;22.17;30.74;100413.08;1741288;82;21208;-65
2021/05/05 09:43:17;;;;;;;6.75;1.37;;;;;;;21.95;30.92;100427.75;1733696;82;21119;-66
2021/05/05 09:45:45;;;;;;;2.83;1.00;;;;;;;21.97;31.39;100416.95;1730826;82;21200;-65
2021/05/05 09:48:22;;;;;;;3.87;1.10;;;;;;;21.90;31.80;100413.77;1723511;82;21152;-52
2021/05/05 09:51:01;;;;;;;7.90;1.65;;;;;;;22.03;31.93;100417.94;1691727;83;21164;-52
2021/05/05 09:53:32;;;;;;;7.08;1.17;;;;;;;22.21;31.75;100410.60;1721408;82;21164;-53
2021/05/05 09:56:10;;;;;;;3.05;1.07;;;;;;;22.30;30.74;100411.00;1747491;82;21612;-53
2021/05/05 09:58:42;;;;;;;4.35;1.00;;;;;;;22.48;29.94;100407.20;1724573;81;21291;-65
2021/05/05 10:01:12;;;;;;;3.70;1.20;;;;;;;22.63;29.51;100401.84;1720810;81;21158;-51
2021/05/05 10:03:49;;;;;;;5.83;1.27;;;;;;;22.87;29.27;100406.14;1746397;82;21555;-51
2021/05/05 10:06:24;;;;;;;5.95;1.10;;;;;;;23.10;28.79;100399.30;1741136;82;21344;-64
2021/05/05 10:09:08;;;;;;;1.85;0.80;;;;;;;23.17;28.60;100403.31;1733890;82;21183;-64
2021/05/05 10:11:38;;;;;;;8.30;1.30;;;;;;;23.34;29.03;100398.67;1721686;82;21149;-64
2021/05/05 10:14:12;;;;;;;3.62;0.93;;;;;;;23.50;27.68;100389.62;1745948;82;21147;-63
2021/05/05 10:16:44;;;;;;;2.72;0.98;;;;;;;23.51;28.06;100381.94;1744884;82;21567;-64
2021/05/05 10:19:21;;;;;;;3.12;0.93;;;;;;;23.65;28.68;100378.32;1745290;82;21163;-63
2021/05/05 10:21:54;;;;;;;3.15;0.62;;;;;;;23.96;29.12;100378.44;1711183;82;21188;-63
2021/05/05 10:24:23;;;;;;;5.20;1.25;;;;;;;23.99;26.39;100378.27;1746170;82;21178;-63
2021/05/05 10:26:51;;;;;;;2.90;1.12;;;;;;;23.91;27.69;100373.36;1740886;82;21694;-63
2021/05/05 10:29:20;;;;;;;7.33;0.90;;;;;;;23.95;27.18;100373.16;1746083;82;21305;-64
2021/05/05 10:31:52;;;;;;;14.65;1.85;;;;;;;23.89;27.04;100366.39;1752028;81;21183;-65
2021/05/05 10:34:22;;;;;;;20.00;2.80;;;;;;;23.81;26.82;100375.45;1770464;81;21151;-65
2021/05/05 10:36:55;;;;;;;28.30;2.75;;;;;;;23.91;26.57;100365.80;1766095;80;21607;-64
2021/05/05 10:39:29;;;;;;;16.37;1.70;;;;;;;24.04;26.78;100375.24;1770557;81;21143;-64
2021/05/05 10:42:16;;;;;;;6.37;1.15;;;;;;;23.98;26.70;100371.59;1755187;80;21186;-64
2021/05/05 10:44:54;;;;;;;8.38;1.30;;;;;;;23.82;27.35;100375.36;1749291;80;21167;-64
2021/05/05 10:47:37;;;;;;;9.25;1.47;;;;;;;23.74;27.66;100373.17;1770573;81;21603;-65
2021/05/05 10:50:11;;;;;;;7.00;1.37;;;;;;;23.60;28.12;100358.00;1770753;80;21179;-64
2021/05/05 10:52:49;;;;;;;6.67;1.20;;;;;;;23.56;28.69;100353.80;1748504;81;21210;-65
2021/05/05 10:55:19;;;;;;;3.90;1.27;;;;;;;23.50;28.55;100358.23;1769288;80;21167;-64
2021/05/05 10:58:11;;;;;;;11.97;1.42;;;;;;;23.53;29.44;100343.25;1707541;81;21175;-64
2021/05/05 11:01:03;;;;;;;12.40;1.50;;;;;;;23.73;28.56;100346.42;1770495;81;21163;-63
2021/05/05 11:03:49;;;;;;;11.53;1.60;;;;;;;23.91;28.56;100337.08;1741273;81;21166;-65
2021/05/05 11:06:49;;;;;;;5.35;1.37;;;;;;;23.94;27.61;100337.37;1739357;81;21155;-64
2021/05/05 11:09:23;;;;;;;11.73;1.67;;;;;;;24.01;27.65;100340.52;1721454;83;21159;-64
2021/05/05 11:11:52;;;;;;;4.80;0.98;;;;;;;23.96;27.22;100331.41;1749157;81;21212;-64
2021/05/05 11:14:32;;;;;;;2.55;0.72;;;;;;;23.86;27.96;100337.03;1770899;81;21175;-64
2021/05/05 11:17:07;;;;;;;2.70;0.90;;;;;;;23.66;27.57;100328.50;1770548;81;21187;-64
2021/05/05 11:19:41;;;;;;;7.70;1.20;;;;;;;23.63;28.42;100328.70;1763119;81;21142;-64
2021/05/05 11:22:32;;;;;;;9.88;1.30;;;;;;;23.68;28.33;100327.91;1766208;81;21191;-63
2021/05/05 11:24:57;;;;;;;3.40;1.07;;;;;;;23.80;28.07;100334.30;1763835;80;21684;-64
2021/05/05 11:27:44;;;;;;;2.60;0.90;;;;;;;24.04;28.73;100326.39;1721436;82;21191;-64
2021/05/05 11:30:39;;;;;;;8.48;1.00;;;;;;;24.19;28.82;100326.27;1709099;83;21198;-64
2021/05/05 11:33:10;;;;;;;2.17;1.07;;;;;;;23.94;28.46;100334.68;1753267;81;21179;-64
2021/05/05 11:35:39;;;;;;;5.67;1.50;;;;;;;24.04;27.97;100340.30;1754934;82;21170;-63
2021/05/05 11:38:18;;;;;;;16.77;1.82;;;;;;;24.08;28.58;100326.15;1754867;81;21155;-64
2021/05/05 11:41:01;;;;;;;9.30;2.05;;;;;;;24.19;27.50;100336.55;1724977;82;21170;-63
2021/05/05 11:43:31;;;;;;;9.88;1.50;;;;;;;24.16;27.44;100330.04;1753649;82;21178;-64
2021/05/05 11:46:02;;;;;;;;;;;;;;;24.18;26.98;100317.34;1757578;80;21750;-64